Time;durP1;ratioP1;P1;durP2;ratioP2;P2;SDS_P1;SDS_P2;PMS_P1;PMS_P2;Temp;Humidity;BMP_temperature;BMP_pressure;BME280_temperature;BME280_humidity;BME280_pressure;Samples;Min_cycle;Max_cycle;Signal;HPM_P1;HPM_P2
2021/11/01 00:01:33;;;;;;;;;;;9.60;99.90;;;;;;5035056;28;20436;-65
2021/11/01 00:04:03;;;;;;;;;;;9.60;99.90;;;;;;5035122;28;19920;-65
2021/11/01 00:06:29;;;;;;;;;;;9.60;99.90;;;;;;5035128;28;19932;-65
2021/11/01 00:08:54;;;;;;;;;;;9.60;99.90;;;;;;5034630;28;19920;-65
2021/11/01 00:11:20;;;;;;;;;;;9.60;99.90;;;;;;5033947;28;19925;-65
2021/11/01 00:13:45;;;;;;;;;;;9.60;99.90;;;;;;5035030;28;20366;-66
2021/11/01 00:16:11;;;;;;;;;;;9.60;99.90;;;;;;5034758;28;19916;-66
2021/11/01 00:18:36;;;;;;;;;;;9.60;99.90;;;;;;5034178;28;19929;-65
2021/11/01 00:21:02;;;;;;;;;;;9.60;99.90;;;;;;5033886;28;19959;-66
2021/11/01 00:23:28;;;;;;;;;;;9.60;99.90;;;;;;5052464;28;19916;-66
2021/11/01 00:25:53;;;;;;;;;;;9.50;99.90;;;;;;5029327;28;19943;-66
2021/11/01 00:28:19;;;;;;;;;;;9.50;99.90;;;;;;5028344;28;19921;-66
2021/11/01 00:30:45;;;;;;;;;;;9.50;99.90;;;;;;5043514;28;19928;-66
2021/11/01 00:33:11;;;;;;;;;;;9.50;99.90;;;;;;5049188;28;19916;-65
2021/11/01 00:35:37;;;;;;;;;;;9.40;99.90;;;;;;5046086;28;19921;-66
2021/11/01 00:38:03;;;;;;;;;;;9.40;99.90;;;;;;5049405;28;19917;-66
2021/11/01 00:40:29;;;;;;;;;;;9.40;99.90;;;;;;5032557;28;19939;-65
2021/11/01 00:42:54;;;;;;;;;;;9.40;99.90;;;;;;5051691;28;19966;-65
2021/11/01 00:45:20;;;;;;;;;;;9.40;99.90;;;;;;5036697;28;19921;-66
2021/11/01 00:47:45;;;;;;;;;;;9.50;99.90;;;;;;5040146;28;19916;-65
2021/11/01 00:50:11;;;;;;;;;;;9.50;99.90;;;;;;5016571;28;19952;-66
2021/11/01 00:52:36;;;;;;;;;;;9.50;99.90;;;;;;5049362;28;19996;-66
2021/11/01 00:55:05;;;;;;;;;;;9.40;99.90;;;;;;5033837;28;19917;-66
2021/11/01 00:57:31;;;;;;;;;;;9.40;99.90;;;;;;5024461;28;19921;-66
2021/11/01 00:59:58;;;;;;;;;;;9.40;99.90;;;;;;5044489;28;19916;-66
2021/11/01 01:02:25;;;;;;;;;;;9.30;99.90;;;;;;5027338;28;19990;-66
2021/11/01 01:04:50;;;;;;;;;;;9.30;99.90;;;;;;5034030;28;19926;-66
2021/11/01 01:07:16;;;;;;;;;;;9.30;99.90;;;;;;5031021;28;20370;-66
2021/11/01 01:09:42;;;;;;;;;;;9.30;99.90;;;;;;5018679;28;19929;-66
2021/11/01 01:12:08;;;;;;;;;;;9.20;99.90;;;;;;5033941;28;20337;-66
2021/11/01 01:14:40;;;;;;;;;;;9.20;99.90;;;;;;5034216;28;19921;-66
2021/11/01 01:17:06;;;;;;;;;;;9.20;99.90;;;;;;5034435;28;19956;-66
2021/11/01 01:19:43;;;;;;;;;;;9.20;99.90;;;;;;5050326;28;19948;-66
2021/11/01 01:22:19;;;;;;;;;;;9.20;99.90;;;;;;5033785;28;19928;-66
2021/11/01 01:24:44;;;;;;;;;;;9.20;99.90;;;;;;5033999;28;19920;-66
2021/11/01 01:27:10;;;;;;;;;;;9.20;99.90;;;;;;5034249;28;19921;-66
2021/11/01 01:29:35;;;;;;;;;;;9.20;99.90;;;;;;5034383;28;19920;-65
2021/11/01 01:32:01;;;;;;;;;;;9.20;99.90;;;;;;5036139;28;19917;-66
2021/11/01 01:34:27;;;;;;;;;;;9.20;99.90;;;;;;5026983;28;19959;-66
2021/11/01 01:36:52;;;;;;;;;;;9.20;99.90;;;;;;5026772;28;19960;-66
2021/11/01 01:39:18;;;;;;;;;;;9.20;99.90;;;;;;5029115;28;19925;-66
2021/11/01 01:41:45;;;;;;;;;;;9.10;99.90;;;;;;5046273;28;19921;-66
2021/11/01 01:44:11;;;;;;;;;;;9.10;99.90;;;;;;5050139;28;19931;-66
2021/11/01 01:46:36;;;;;;;;;;;9.10;99.90;;;;;;5025449;28;19924;-66
2021/11/01 01:49:02;;;;;;;;;;;9.10;99.90;;;;;;5049165;28;19951;-66
2021/11/01 01:51:29;;;;;;;;;;;9.10;99.90;;;;;;5051908;28;19917;-66
2021/11/01 01:53:55;;;;;;;;;;;9.10;99.90;;;;;;5028923;28;20347;-66
2021/11/01 01:56:23;;;;;;;;;;;9.00;99.90;;;;;;5052160;28;19921;-66
2021/11/01 01:58:56;;;;;;;;;;;9.00;99.90;;;;;;5034509;28;19917;-66
2021/11/01 02:01:23;;;;;;;;;;;9.00;99.90;;;;;;5017556;28;20301;-66
2021/11/01 02:03:50;;;;;;;;;;;9.00;99.90;;;;;;5033234;28;19921;-66
2021/11/01 02:06:15;;;;;;;;;;;9.00;99.90;;;;;;5022961;28;19964;-66
2021/11/01 02:09:10;;;;;;;;;;;9.00;99.90;;;;;;5051664;28;20013;-66
2021/11/01 02:11:48;;;;;;;;;;;9.00;99.90;;;;;;5021730;28;19962;-67
2021/11/01 02:14:16;;;;;;;;;;;9.00;99.90;;;;;;5037909;28;20019;-66
2021/11/01 02:16:42;;;;;;;;;;;9.00;99.90;;;;;;5037555;28;19917;-67
2021/11/01 02:19:10;;;;;;;;;;;8.90;99.90;;;;;;5037777;28;20024;-66
2021/11/01 02:21:38;;;;;;;;;;;8.90;99.90;;;;;;5032735;28;19954;-67
2021/11/01 02:24:15;;;;;;;;;;;8.90;99.90;;;;;;5017981;28;19982;-67
2021/11/01 02:26:41;;;;;;;;;;;8.90;99.90;;;;;;5048498;28;19999;-66
2021/11/01 02:29:07;;;;;;;;;;;8.80;99.90;;;;;;5052878;28;19979;-67
2021/11/01 02:31:33;;;;;;;;;;;8.80;99.90;;;;;;5029214;28;19925;-67
2021/11/01 02:33:59;;;;;;;;;;;8.80;99.90;;;;;;5037067;28;19959;-67
2021/11/01 02:36:25;;;;;;;;;;;8.70;99.90;;;;;;5048169;28;20008;-67
2021/11/01 02:38:50;;;;;;;;;;;8.70;99.90;;;;;;5017567;28;20360;-67
2021/11/01 02:41:24;;;;;;;;;;;8.70;99.90;;;;;;5029914;28;19925;-67
2021/11/01 02:43:56;;;;;;;;;;;8.70;99.90;;;;;;5039547;28;20414;-67
2021/11/01 02:46:23;;;;;;;;;;;8.70;99.90;;;;;;5024457;28;19932;-67
2021/11/01 02:48:49;;;;;;;;;;;8.70;99.90;;;;;;5051500;28;19928;-66
2021/11/01 02:51:16;;;;;;;;;;;8.70;99.90;;;;;;5020113;28;19917;-66
2021/11/01 02:53:43;;;;;;;;;;;8.70;99.90;;;;;;5052057;28;19928;-67
2021/11/01 02:56:10;;;;;;;;;;;8.70;99.90;;;;;;5048239;28;20031;-66
2021/11/01 02:58:37;;;;;;;;;;;8.70;99.90;;;;;;5035024;28;19952;-67
2021/11/01 03:01:03;;;;;;;;;;;8.70;99.90;;;;;;5035843;28;19923;-66
2021/11/01 03:03:28;;;;;;;;;;;8.70;99.90;;;;;;5041104;28;19921;-67
2021/11/01 03:05:54;;;;;;;;;;;8.60;99.90;;;;;;5035910;28;20338;-67
2021/11/01 03:08:19;;;;;;;;;;;8.70;99.90;;;;;;5052126;28;19925;-67
2021/11/01 03:10:46;;;;;;;;;;;8.70;99.90;;;;;;5034649;28;19921;-67
2021/11/01 03:13:11;;;;;;;;;;;8.70;99.90;;;;;;5054114;28;19978;-67
2021/11/01 03:15:37;;;;;;;;;;;8.60;99.90;;;;;;5049302;28;19983;-67
2021/11/01 03:18:04;;;;;;;;;;;8.60;99.90;;;;;;5040714;28;19920;-66
2021/11/01 03:20:37;;;;;;;;;;;8.60;99.90;;;;;;5030730;28;19927;-67
2021/11/01 03:23:08;;;;;;;;;;;8.60;99.90;;;;;;5039617;28;19924;-67
2021/11/01 03:25:38;;;;;;;;;;;8.50;99.90;;;;;;5050828;28;19925;-66
2021/11/01 03:28:08;;;;;;;;;;;8.50;99.90;;;;;;5020017;28;19920;-67
2021/11/01 03:30:34;;;;;;;;;;;8.50;99.90;;;;;;5046730;28;19920;-66
2021/11/01 03:33:00;;;;;;;;;;;8.40;99.90;;;;;;5028207;28;19923;-67
2021/11/01 03:35:26;;;;;;;;;;;8.40;99.90;;;;;;5023732;28;20023;-66
2021/11/01 03:37:54;;;;;;;;;;;8.40;99.90;;;;;;5033773;28;20007;-67
2021/11/01 03:40:20;;;;;;;;;;;8.40;99.90;;;;;;5046443;28;19929;-67
2021/11/01 03:42:52;;;;;;;;;;;8.40;99.90;;;;;;5024391;28;19921;-67
2021/11/01 03:45:18;;;;;;;;;;;8.40;99.90;;;;;;5028201;28;19920;-66
2021/11/01 03:47:46;;;;;;;;;;;8.30;99.90;;;;;;5028789;28;19968;-67
2021/11/01 03:52:45;;;;;;;;;;;8.30;99.90;;;;;;5021161;28;19967;-66
2021/11/01 03:55:11;;;;;;;;;;;8.30;99.90;;;;;;5050502;28;19998;-66
2021/11/01 03:57:37;;;;;;;;;;;8.30;99.90;;;;;;5050841;28;19974;-67
2021/11/01 04:00:06;;;;;;;;;;;8.20;99.90;;;;;;5033581;28;20381;-67
2021/11/01 04:02:32;;;;;;;;;;;8.20;99.90;;;;;;5016926;28;20381;-67
2021/11/01 04:04:59;;;;;;;;;;;8.20;99.90;;;;;;5018437;28;19995;-66
2021/11/01 04:07:26;;;;;;;;;;;8.20;99.90;;;;;;5037348;28;20448;-66
2021/11/01 04:09:51;;;;;;;;;;;8.20;99.90;;;;;;5039599;28;19925;-67
2021/11/01 04:12:17;;;;;;;;;;;8.10;99.90;;;;;;5018888;28;19987;-67
2021/11/01 04:14:49;;;;;;;;;;;8.10;99.90;;;;;;5048303;28;20425;-67
2021/11/01 04:17:38;;;;;;;;;;;8.10;99.90;;;;;;5030094;28;19928;-67
2021/11/01 04:22:50;;;;;;;;;;;8.10;99.90;;;;;;5033909;28;20559;-66
2021/11/01 04:25:16;;;;;;;;;;;8.10;99.90;;;;;;5033347;28;19917;-66
2021/11/01 04:27:41;;;;;;;;;;;8.10;99.90;;;;;;5045057;28;19917;-66
2021/11/01 04:30:08;;;;;;;;;;;8.10;99.90;;;;;;5049963;28;19924;-67
2021/11/01 04:32:36;;;;;;;;;;;8.10;99.90;;;;;;5034272;28;19916;-67
2021/11/01 04:35:11;;;;;;;;;;;8.10;99.90;;;;;;5034695;28;19917;-66
2021/11/01 04:37:37;;;;;;;;;;;8.10;99.90;;;;;;5022341;28;19917;-67
2021/11/01 04:43:12;;;;;;;;;;;8.10;99.90;;;;;;5007884;28;19923;-67
2021/11/01 04:53:53;;;;;;;;;;;8.10;99.90;;;;;;5008895;28;20601;-67
2021/11/01 04:56:21;;;;;;;;;;;8.00;99.90;;;;;;5011423;28;19917;-67
2021/11/01 04:58:47;;;;;;;;;;;8.00;99.90;;;;;;5027475;28;19924;-67
2021/11/01 05:01:15;;;;;;;;;;;8.00;99.90;;;;;;5000701;28;19922;-66
2021/11/01 05:03:42;;;;;;;;;;;8.00;99.90;;;;;;5001141;28;19917;-67
2021/11/01 05:06:09;;;;;;;;;;;8.00;99.90;;;;;;5002320;28;20256;-66
2021/11/01 05:08:42;;;;;;;;;;;7.90;99.90;;;;;;5006009;28;20328;-66
2021/11/01 05:13:52;;;;;;;;;;;7.90;99.90;;;;;;5010193;28;20350;-66
2021/11/01 05:16:29;;;;;;;;;;;7.90;99.90;;;;;;5011067;28;19961;-66
2021/11/01 05:19:04;;;;;;;;;;;7.90;99.90;;;;;;5009661;28;19933;-67
2021/11/01 05:21:39;;;;;;;;;;;7.90;99.90;;;;;;5004778;28;19926;-66
2021/11/01 05:24:11;;;;;;;;;;;7.90;99.90;;;;;;5009759;28;19917;-67
2021/11/01 05:27:07;;;;;;;;;;;7.80;99.90;;;;;;4996879;28;19929;-67
2021/11/01 05:29:33;;;;;;;;;;;7.90;99.90;;;;;;5009350;28;20055;-66
2021/11/01 05:32:11;;;;;;;;;;;7.90;99.90;;;;;;5009363;28;20375;-67
2021/11/01 05:34:36;;;;;;;;;;;7.90;99.90;;;;;;4996190;28;20007;-67
2021/11/01 05:37:02;;;;;;;;;;;7.80;99.90;;;;;;5013656;28;19968;-67
2021/11/01 05:39:27;;;;;;;;;;;7.70;99.90;;;;;;5046480;28;19921;-67
2021/11/01 05:41:53;;;;;;;;;;;7.80;99.90;;;;;;5029044;28;19921;-66
2021/11/01 05:44:18;;;;;;;;;;;7.80;99.90;;;;;;5043276;28;19927;-67
2021/11/01 05:46:49;;;;;;;;;;;7.70;99.90;;;;;;5025499;28;19948;-67
2021/11/01 05:49:17;;;;;;;;;;;7.80;99.90;;;;;;5026920;28;19920;-66
2021/11/01 05:51:42;;;;;;;;;;;7.80;99.90;;;;;;5017120;28;19979;-67
2021/11/01 05:54:12;;;;;;;;;;;7.80;99.90;;;;;;5024230;28;20398;-67
2021/11/01 05:56:47;;;;;;;;;;;7.70;99.90;;;;;;5036530;28;19939;-67
2021/11/01 06:02:14;;;;;;;;;;;7.80;99.90;;;;;;5024930;28;19924;-67
2021/11/01 06:14:34;;;;;;;;;;;7.70;99.90;;;;;;5031748;28;19947;-67
2021/11/01 06:17:00;;;;;;;;;;;7.70;99.90;;;;;;5027376;28;19921;-67
2021/11/01 06:19:26;;;;;;;;;;;7.70;99.90;;;;;;5046891;28;19955;-66
2021/11/01 06:21:52;;;;;;;;;;;7.70;99.90;;;;;;5051229;28;19966;-66
2021/11/01 06:26:52;;;;;;;;;;;7.70;99.90;;;;;;5032273;28;20007;-67
2021/11/01 06:29:20;;;;;;;;;;;7.70;99.90;;;;;;5033814;28;20020;-67
2021/11/01 06:31:58;;;;;;;;;;;7.60;99.90;;;;;;5033664;28;19916;-66
2021/11/01 06:39:55;;;;;;;;;;;7.60;99.90;;;;;;5031015;28;19999;-66
2021/11/01 06:42:30;;;;;;;;;;;7.60;99.90;;;;;;5045323;28;19928;-66
2021/11/01 06:50:30;;;;;;;;;;;7.70;99.90;;;;;;5024053;28;19963;-67
2021/11/01 06:53:17;;;;;;;;;;;7.70;99.90;;;;;;5044925;28;19923;-67
2021/11/01 06:58:31;;;;;;;;;;;7.80;99.90;;;;;;5042870;28;20282;-66
2021/11/01 07:14:44;;;;;;;;;;;8.10;99.90;;;;;;5052070;28;19920;-67
2021/11/01 07:17:16;;;;;;;;;;;8.10;99.90;;;;;;5033422;28;20262;-67
2021/11/01 07:20:11;;;;;;;;;;;8.10;99.90;;;;;;5035666;28;19916;-66
2021/11/01 08:17:33;;;;;;;;;;;8.60;99.90;;;;;;5035718;28;19956;-67
2021/11/01 08:34:24;;;;;;;;;;;10.00;99.90;;;;;;5032096;28;19935;-69
2021/11/01 08:37:49;;;;;;;;;;;9.90;99.90;;;;;;5062204;28;19994;-69
2021/11/01 08:50:36;;;;;;;;;;;10.10;99.90;;;;;;5070638;28;19943;-69
2021/11/01 09:04:19;;;;;;;;;;;10.30;99.90;;;;;;5072354;28;19939;-69
2021/11/01 09:20:22;;;;;;;;;;;10.60;99.90;;;;;;5066474;28;19920;-69
2021/11/01 09:28:08;;;;;;;;;;;10.70;99.90;;;;;;5063907;28;19951;-69
2021/11/01 09:36:14;;;;;;;;;;;10.90;99.90;;;;;;5067214;28;19923;-69
2021/11/01 09:41:26;;;;;;;;;;;11.00;99.90;;;;;;5064094;28;19920;-69
2021/11/01 09:43:54;;;;;;;;;;;11.00;99.90;;;;;;5060184;28;19921;-68
2021/11/01 09:46:21;;;;;;;;;;;11.20;99.90;;;;;;5069324;28;19920;-69
2021/11/01 09:48:47;;;;;;;;;;;11.20;99.90;;;;;;5061582;28;19920;-69
2021/11/01 09:51:12;;;;;;;;;;;11.30;99.90;;;;;;5065541;28;19927;-69
2021/11/01 09:53:44;;;;;;;;;;;11.30;99.90;;;;;;5058618;28;20438;-69
2021/11/01 09:56:40;;;;;;;;;;;11.30;99.90;;;;;;5066082;28;19951;-69
2021/11/01 09:59:12;;;;;;;;;;;11.40;99.90;;;;;;5057770;28;19927;-69
2021/11/01 10:01:39;;;;;;;;;;;11.40;99.90;;;;;;5050859;28;20011;-69
2021/11/01 10:04:12;;;;;;;;;;;11.40;99.90;;;;;;5054268;28;19961;-69
2021/11/01 10:06:38;;;;;;;;;;;11.40;99.90;;;;;;5058110;28;19978;-69
2021/11/01 10:09:05;;;;;;;;;;;11.40;99.90;;;;;;5066699;28;19924;-68
2021/11/01 10:11:39;;;;;;;;;;;11.40;99.90;;;;;;5071117;28;20014;-69
2021/11/01 10:14:05;;;;;;;;;;;11.40;99.90;;;;;;5061292;28;20430;-69
2021/11/01 10:19:27;;;;;;;;;;;11.40;99.90;;;;;;5066620;28;20039;-68
2021/11/01 10:21:53;;;;;;;;;;;11.50;99.90;;;;;;5067444;28;19920;-69
2021/11/01 10:24:23;;;;;;;;;;;11.50;99.90;;;;;;5064936;28;20019;-66
2021/11/01 10:26:50;;;;;;;;;;;11.50;99.90;;;;;;5053470;28;20300;-69
2021/11/01 10:29:15;;;;;;;;;;;11.50;99.90;;;;;;5070431;28;19920;-68
2021/11/01 10:31:45;;;;;;;;;;;11.50;99.90;;;;;;5069056;28;19924;-68
2021/11/01 10:34:12;;;;;;;;;;;11.50;99.90;;;;;;5085193;28;19973;-69
2021/11/01 10:36:38;;;;;;;;;;;11.50;99.90;;;;;;5070102;28;19959;-68
2021/11/01 10:39:06;;;;;;;;;;;11.60;99.90;;;;;;5070829;28;19920;-68
2021/11/01 10:56:45;;;;;;;;;;;11.70;99.90;;;;;;5070186;28;20003;-68
2021/11/01 10:59:08;;;;;;;;;;;11.90;99.90;;;;;;5067953;28;19924;-68
2021/11/01 11:12:55;;;;;;;;;;;12.30;99.90;;;;;;5070931;28;20015;-68
2021/11/01 11:15:22;;;;;;;;;;;12.40;99.90;;;;;;5067725;28;19947;-68
2021/11/01 11:26:06;;;;;;;;;;;12.40;99.90;;;;;;5062727;28;19920;-69
2021/11/01 11:33:56;;;;;;;;;;;12.50;99.90;;;;;;5071944;28;19924;-68
2021/11/01 11:47:34;;;;;;;;;;;12.70;99.90;;;;;;5069676;28;20478;-68
2021/11/01 11:50:08;;;;;;;;;;;12.70;99.90;;;;;;5067297;28;20520;-69
2021/11/01 11:52:35;;;;;;;;;;;12.70;99.90;;;;;;5069007;28;19962;-69
2021/11/01 11:55:06;;;;;;;;;;;12.80;99.90;;;;;;5069367;28;19928;-69
2021/11/01 11:57:37;;;;;;;;;;;12.80;99.90;;;;;;5069247;28;19924;-69
2021/11/01 12:00:05;;;;;;;;;;;12.70;99.90;;;;;;5052472;28;19921;-69
2021/11/01 12:02:38;;;;;;;;;;;12.70;99.90;;;;;;5063883;28;19967;-69
2021/11/01 12:05:10;;;;;;;;;;;12.60;99.90;;;;;;5052463;28;19962;-69
2021/11/01 12:07:46;;;;;;;;;;;12.50;99.90;;;;;;5064019;28;19916;-68
2021/11/01 12:10:19;;;;;;;;;;;12.60;99.90;;;;;;5069079;28;20479;-68
2021/11/01 12:17:54;;;;;;;;;;;12.60;99.90;;;;;;5067916;28;19928;-68
2021/11/01 12:20:21;;;;;;;;;;;12.60;99.90;;;;;;5070060;28;19920;-69
2021/11/01 12:22:49;;;;;;;;;;;12.60;99.90;;;;;;5068426;28;19974;-69
2021/11/01 12:25:17;;;;;;;;;;;12.60;99.90;;;;;;5071038;28;19969;-69
2021/11/01 12:27:44;;;;;;;;;;;12.70;99.90;;;;;;5068797;28;19920;-69
2021/11/01 12:30:10;;;;;;;;;;;12.60;99.90;;;;;;5065984;28;19975;-68
2021/11/01 12:32:38;;;;;;;;;;;12.70;99.90;;;;;;5067702;28;19920;-69
2021/11/01 12:35:07;;;;;;;;;;;12.70;99.90;;;;;;5069424;28;19960;-68
2021/11/01 12:37:47;;;;;;;;;;;12.70;99.90;;;;;;5051189;28;19946;-69
2021/11/01 12:40:32;;;;;;;;;;;12.70;99.90;;;;;;5069700;28;19960;-68
2021/11/01 12:57:03;;;;;;;;;;;12.60;99.90;;;;;;5062490;28;19924;-69
2021/11/01 12:59:49;;;;;;;;;;;12.60;99.90;;;;;;5069937;28;19991;-69
2021/11/01 13:02:37;;;;;;;;;;;12.70;99.90;;;;;;5067551;28;19924;-69
2021/11/01 13:05:07;;;;;;;;;;;12.70;99.90;;;;;;5070422;28;20487;-68
2021/11/01 13:07:47;;;;;;;;;;;12.70;99.90;;;;;;5072012;28;20007;-68
2021/11/01 13:10:26;;;;;;;;;;;12.70;99.90;;;;;;5071161;28;20419;-69
2021/11/01 13:18:31;;;;;;;;;;;12.50;99.90;;;;;;5065104;28;20022;-69
2021/11/01 13:21:01;;;;;;;;;;;12.50;99.90;;;;;;5069387;28;19999;-68
2021/11/01 13:23:32;;;;;;;;;;;12.50;99.90;;;;;;5058235;28;19959;-69
2021/11/01 13:37:35;;;;;;;;;;;12.60;99.90;;;;;;5055662;28;19999;-69
2021/11/01 13:40:02;;;;;;;;;;;12.60;99.90;;;;;;5028002;28;19935;-70
2021/11/01 13:42:28;;;;;;;;;;;12.50;99.90;;;;;;5068702;28;19926;-68
2021/11/01 13:45:03;;;;;;;;;;;12.50;99.90;;;;;;5068168;28;19920;-68
2021/11/01 13:47:38;;;;;;;;;;;12.40;99.90;;;;;;5066379;28;20568;-68
2021/11/01 13:50:05;;;;;;;;;;;12.40;99.90;;;;;;5063737;28;20329;-68
2021/11/01 13:52:37;;;;;;;;;;;12.40;99.90;;;;;;5056037;28;19924;-68
2021/11/01 13:57:33;;;;;;;;;;;12.30;99.90;;;;;;5060422;28;20089;-68
2021/11/01 14:00:29;;;;;;;;;;;12.30;99.90;;;;;;5063781;28;19916;-68
2021/11/01 14:03:11;;;;;;;;;;;12.30;99.90;;;;;;5069557;28;19928;-68
2021/11/01 14:14:03;;;;;;;;;;;12.30;99.90;;;;;;5074039;28;19920;-68
2021/11/01 14:16:35;;;;;;;;;;;12.30;99.90;;;;;;5074598;28;20278;-68
2021/11/01 14:27:16;;;;;;;;;;;12.10;99.90;;;;;;5073602;28;19924;-68
2021/11/01 15:16:08;;;;;;;;;;;11.20;99.90;;;;;;5067261;28;19963;-68
2021/11/01 15:18:32;;;;;;;;;;;11.10;99.90;;;;;;5047536;28;20160;-69
2021/11/01 15:21:04;;;;;;;;;;;11.10;99.90;;;;;;5066209;28;19920;-68
2021/11/01 15:29:07;;;;;;;;;;;10.80;99.90;;;;;;5062554;28;19920;-68
2021/11/01 16:15:28;;;;;;;;;;;10.90;99.90;;;;;;5072326;28;19979;-68
2021/11/01 16:18:17;;;;;;;;;;;9.90;99.90;;;;;;5066545;28;20259;-68
2021/11/01 16:20:43;;;;;;;;;;;9.80;99.90;;;;;;5071067;28;19927;-68
2021/11/01 16:23:33;;;;;;;;;;;9.80;99.90;;;;;;5068057;28;19924;-68
2021/11/01 16:26:01;;;;;;;;;;;9.70;99.90;;;;;;5066464;28;19966;-68
2021/11/01 16:28:29;;;;;;;;;;;9.60;99.90;;;;;;5071140;28;20317;-68
2021/11/01 16:33:45;;;;;;;;;;;9.50;99.90;;;;;;5071259;28;20499;-68
2021/11/01 16:36:19;;;;;;;;;;;9.40;99.90;;;;;;5069884;28;20592;-68
2021/11/01 16:38:51;;;;;;;;;;;9.40;99.90;;;;;;5069898;28;19927;-68
2021/11/01 16:41:20;;;;;;;;;;;9.40;99.90;;;;;;5062740;28;19966;-68
2021/11/01 16:43:47;;;;;;;;;;;9.40;99.90;;;;;;5067640;28;20003;-68
2021/11/01 16:46:13;;;;;;;;;;;9.30;99.90;;;;;;5056453;28;19925;-68
2021/11/01 16:48:38;;;;;;;;;;;9.30;99.90;;;;;;5063711;28;19965;-68
2021/11/01 16:51:04;;;;;;;;;;;9.20;99.90;;;;;;5071009;28;19921;-68
2021/11/01 16:53:30;;;;;;;;;;;9.10;99.90;;;;;;5070100;28;20019;-68
2021/11/01 16:56:03;;;;;;;;;;;9.10;99.90;;;;;;5072083;28;19927;-68
2021/11/01 16:58:40;;;;;;;;;;;9.00;99.90;;;;;;5068702;28;19921;-68
2021/11/01 17:01:10;;;;;;;;;;;8.90;99.90;;;;;;5059239;28;19916;-68
2021/11/01 17:03:47;;;;;;;;;;;8.90;99.90;;;;;;5059378;28;20411;-68
2021/11/01 17:21:19;;;;;;;;;;;8.50;99.90;;;;;;5052612;28;20011;-68
2021/11/01 17:23:53;;;;;;;;;;;8.30;99.90;;;;;;5069277;28;20319;-68
2021/11/01 17:26:24;;;;;;;;;;;8.30;99.90;;;;;;5068999;28;19923;-69
2021/11/01 17:36:56;;;;;;;;;;;8.10;99.90;;;;;;5067546;28;19923;-69
2021/11/01 18:40:36;;;;;;;;;;;8.60;99.90;;;;;;5063854;28;19920;-68
2021/11/01 18:42:57;;;;;;;;;;;8.60;99.90;;;;;;5052193;28;19931;-68
2021/11/01 18:51:02;;;;;;;;;;;8.40;99.90;;;;;;5059077;28;19924;-68
2021/11/01 18:53:37;;;;;;;;;;;8.40;99.90;;;;;;5066190;28;19916;-68
2021/11/01 18:56:04;;;;;;;;;;;8.30;99.90;;;;;;5053730;28;20408;-68
2021/11/01 18:58:31;;;;;;;;;;;8.30;99.90;;;;;;5071297;28;19916;-68
2021/11/01 19:00:57;;;;;;;;;;;8.20;99.90;;;;;;5073778;28;19927;-68
2021/11/01 19:03:25;;;;;;;;;;;8.20;99.90;;;;;;5069871;28;20285;-68
2021/11/01 19:08:57;;;;;;;;;;;8.10;99.90;;;;;;5050418;28;19932;-68
2021/11/01 20:05:52;;;;;;;;;;;8.10;99.90;;;;;;5070282;28;19916;-68
2021/11/01 20:08:59;;;;;;;;;;;8.00;99.90;;;;;;5045099;23;19960;-69
2021/11/01 20:11:31;;;;;;;;;;;8.00;99.90;;;;;;5046597;28;20285;-70
2021/11/01 21:24:27;;;;;;;;;;;7.80;99.90;;;;;;5061179;28;20303;-70
2021/11/01 21:25:49;;;;;;;;;;;6.90;99.90;;;;;;5045938;28;20269;-69
2021/11/01 21:28:15;;;;;;;;;;;6.90;99.90;;;;;;5048408;28;19931;-69
2021/11/01 21:30:41;;;;;;;;;;;6.90;99.90;;;;;;5047866;28;19920;-69
2021/11/01 21:33:06;;;;;;;;;;;6.90;99.90;;;;;;5050269;28;19917;-70
2021/11/01 21:35:41;;;;;;;;;;;6.80;99.90;;;;;;5049958;28;19931;-70
2021/11/01 21:38:06;;;;;;;;;;;6.80;99.90;;;;;;5048129;28;19916;-69
2021/11/01 21:40:32;;;;;;;;;;;6.80;99.90;;;;;;5049646;28;20008;-69
2021/11/01 21:42:57;;;;;;;;;;;6.80;99.90;;;;;;5033440;28;20407;-69
2021/11/01 21:45:23;;;;;;;;;;;6.80;99.90;;;;;;5038516;28;19928;-69
2021/11/01 21:47:48;;;;;;;;;;;6.80;99.90;;;;;;5050502;28;19972;-69
2021/11/01 21:50:15;;;;;;;;;;;6.80;99.90;;;;;;5049987;28;19921;-69
2021/11/01 21:52:44;;;;;;;;;;;6.80;99.90;;;;;;5049184;28;19916;-69
2021/11/01 21:55:09;;;;;;;;;;;6.80;99.90;;;;;;5050068;28;19958;-69
2021/11/01 21:57:53;;;;;;;;;;;6.70;99.90;;;;;;5033176;28;19924;-69
2021/11/01 22:00:38;;;;;;;;;;;6.70;99.90;;;;;;5031576;28;19960;-69
2021/11/01 22:16:40;;;;;;;;;;;6.70;99.90;;;;;;5050159;28;19924;-69
2021/11/01 22:24:32;;;;;;;;;;;6.60;99.90;;;;;;5047516;28;19928;-69
2021/11/01 22:32:31;;;;;;;;;;;6.60;99.90;;;;;;5055273;28;20023;-69
2021/11/01 22:45:55;;;;;;;;;;;6.50;99.90;;;;;;5054747;28;19917;-70
2021/11/01 22:48:35;;;;;;;;;;;6.50;99.90;;;;;;5052752;28;19920;-69
2021/11/01 22:56:38;;;;;;;;;;;6.50;99.90;;;;;;5046823;28;19924;-69
2021/11/01 22:59:04;;;;;;;;;;;6.50;99.90;;;;;;5053357;28;19994;-70
2021/11/01 23:01:37;;;;;;;;;;;6.50;99.90;;;;;;5053510;28;20013;-69
2021/11/01 23:04:27;;;;;;;;;;;6.40;99.90;;;;;;5036374;28;19924;-70
2021/11/01 23:07:05;;;;;;;;;;;6.40;99.90;;;;;;5045663;28;20393;-69
2021/11/01 23:31:35;;;;;;;;;;;6.00;99.90;;;;;;5052637;28;19936;-69
2021/11/01 23:34:05;;;;;;;;;;;6.00;99.90;;;;;;5053147;28;20015;-70
2021/11/01 23:36:31;;;;;;;;;;;5.90;99.90;;;;;;5036207;28;19966;-69
2021/11/01 23:38:57;;;;;;;;;;;5.80;99.90;;;;;;5052648;28;19921;-69
2021/11/01 23:41:22;;;;;;;;;;;5.80;99.90;;;;;;5051196;28;19923;-70
2021/11/01 23:43:48;;;;;;;;;;;5.80;99.90;;;;;;5048415;28;19916;-70
2021/11/01 23:46:14;;;;;;;;;;;5.80;99.90;;;;;;5051450;28;19916;-70
2021/11/01 23:48:40;;;;;;;;;;;5.70;99.90;;;;;;5052542;28;19986;-70
2021/11/01 23:51:09;;;;;;;;;;;5.80;99.90;;;;;;5068701;28;19925;-69
2021/11/01 23:56:01;;;;;;;;;;;5.70;99.90;;;;;;5051023;28;19924;-70
2021/11/01 23:58:27;;;;;;;;;;;5.60;99.90;;;;;;5051386;28;19927;-69
